Aviation Digital Data Service (ADDS)

Output produced by METARs form (0821 UTC 31 October 2014)
found at http://aviationweather.gov/adds/metars/
 
KEWR 310537Z 3106/0112 35006KT P6SM SCT050 
     FM311600 04006KT P6SM BKN040 
     FM312000 06008KT P6SM BKN035 
     TEMPO 3123/0103 -RA 
     FM010300 04010KT P6SM -RA OVC025 
     FM010800 03013G18KT 5SM -RA BR OVC020